Time;durP1;ratioP1;P1;durP2;ratioP2;P2;SDS_P1;SDS_P2;PMS_P1;PMS_P2;Temp;Humidity;BMP_temperature;BMP_pressure;BME280_temperature;BME280_humidity;BME280_pressure;Samples;Min_cycle;Max_cycle;Signal;HPM_P1;HPM_P2
2021/11/25 00:01:29;;;;;;;17.60;8.63;;;;;;;12.27;64.58;100816.66;4812847;29;121933;-82
2021/11/25 00:03:57;;;;;;;17.02;8.50;;;;;;;12.27;65.15;100813.88;4782664;29;120852;-83
2021/11/25 00:06:23;;;;;;;27.17;12.50;;;;;;;12.28;64.78;100810.69;4811283;29;122515;-82
2021/11/25 00:08:50;;;;;;;16.60;8.88;;;;;;;12.28;64.65;100804.41;4806317;29;120223;-82
2021/11/25 00:11:17;;;;;;;16.10;7.97;;;;;;;12.27;64.42;100802.91;4824764;28;120296;-82
2021/11/25 00:13:44;;;;;;;17.85;9.27;;;;;;;12.34;64.67;100801.84;4811202;29;122203;-82
2021/11/25 00:16:10;;;;;;;19.27;8.55;;;;;;;12.34;64.31;100796.34;4781954;29;121098;-82
2021/11/25 00:18:38;;;;;;;15.82;8.07;;;;;;;12.26;64.59;100773.88;4811241;29;120808;-83
2021/11/25 00:21:05;;;;;;;17.13;8.45;;;;;;;12.32;64.36;100788.56;4796479;29;122423;-82
2021/11/25 00:23:32;;;;;;;11.38;7.55;;;;;;;12.23;64.22;100770.03;4801219;29;119926;-82
2021/11/25 00:25:59;;;;;;;11.57;7.60;;;;;;;12.20;64.31;100768.22;4829630;28;121610;-83
2021/11/25 00:28:27;;;;;;;14.45;7.60;;;;;;;12.22;64.55;100768.53;4811011;29;120415;-83
2021/11/25 00:30:53;;;;;;;17.02;8.13;;;;;;;12.22;63.73;100768.53;4801785;29;121332;-80
2021/11/25 00:33:20;;;;;;;12.48;7.07;;;;;;;12.17;64.14;100777.38;4796328;29;120804;-82
2021/11/25 00:35:47;;;;;;;13.10;7.18;;;;;;;12.16;65.18;100770.38;4779658;29;119831;-82
2021/11/25 00:38:15;;;;;;;13.18;8.02;;;;;;;12.16;64.68;100758.59;4798132;29;121875;-82
2021/11/25 00:40:44;;;;;;;15.10;7.25;;;;;;;12.22;64.25;100762.25;4813051;29;120264;-82
2021/11/25 00:43:11;;;;;;;13.95;7.93;;;;;;;12.09;64.06;100748.69;4798075;29;121133;-82
2021/11/25 00:45:38;;;;;;;14.68;7.32;;;;;;;12.17;64.03;100752.66;4804149;29;121522;-82
2021/11/25 00:48:05;;;;;;;13.35;7.88;;;;;;;12.10;63.93;100747.47;4814751;29;122179;-82
2021/11/25 00:50:33;;;;;;;12.32;7.10;;;;;;;12.10;64.08;100744.72;4795839;29;122013;-82
2021/11/25 00:52:59;;;;;;;15.82;7.35;;;;;;;12.09;63.79;100740.44;4794923;29;123197;-81
2021/11/25 00:55:26;;;;;;;12.05;7.30;;;;;;;12.09;64.12;100736.94;4808628;29;119721;-82
2021/11/25 00:57:53;;;;;;;13.90;7.65;;;;;;;12.13;64.38;100737.53;4808841;29;119999;-82
2021/11/25 01:00:22;;;;;;;12.80;6.28;;;;;;;12.14;64.79;100737.06;4782618;29;123573;-83
2021/11/25 01:02:50;;;;;;;14.40;7.20;;;;;;;12.16;64.25;100740.13;4792708;29;120234;-84
2021/11/25 01:05:18;;;;;;;13.10;6.68;;;;;;;12.15;64.32;100740.59;4805775;29;121570;-82
2021/11/25 01:07:46;;;;;;;12.20;6.70;;;;;;;12.10;64.28;100738.44;4790065;29;122905;-82
2021/11/25 01:10:16;;;;;;;12.18;6.30;;;;;;;12.15;64.18;100743.34;4776380;29;120121;-82
2021/11/25 01:12:43;;;;;;;11.50;6.85;;;;;;;12.10;63.74;100733.72;4813128;29;121710;-82
2021/11/25 01:15:13;;;;;;;14.63;6.80;;;;;;;12.04;64.19;100719.03;4826944;28;119797;-81
2021/11/25 01:17:41;;;;;;;11.38;6.70;;;;;;;12.13;64.34;100727.28;4778061;29;121156;-82
2021/11/25 01:20:11;;;;;;;11.70;6.00;;;;;;;12.09;63.93;100721.19;4807898;29;120155;-82
2021/11/25 01:22:39;;;;;;;11.80;6.47;;;;;;;12.04;63.89;100707.28;4779528;29;120611;-82
2021/11/25 01:25:06;;;;;;;13.05;5.95;;;;;;;12.09;63.99;100714.94;4794943;29;122269;-82
2021/11/25 01:27:33;;;;;;;10.85;6.00;;;;;;;12.01;64.25;100695.22;4808227;29;120345;-82
2021/11/25 01:30:00;;;;;;;13.50;6.50;;;;;;;12.05;63.91;100700.56;4794254;29;119670;-81
2021/11/25 01:32:27;;;;;;;13.63;6.32;;;;;;;12.07;63.90;100698.13;4799241;29;121987;-82
2021/11/25 01:34:56;;;;;;;10.55;5.68;;;;;;;12.12;63.82;100692.00;4801797;29;120117;-82
2021/11/25 01:37:25;;;;;;;19.13;6.90;;;;;;;12.11;64.27;100698.72;4796451;29;122223;-82
2021/11/25 01:39:52;;;;;;;10.48;5.95;;;;;;;12.14;64.88;100684.06;4780305;29;122706;-81
2021/11/25 01:42:21;;;;;;;10.73;5.15;;;;;;;12.11;64.48;100676.72;4799589;29;121401;-81
2021/11/25 01:44:50;;;;;;;9.65;5.93;;;;;;;12.10;64.09;100686.22;4826199;28;121218;-81
2021/11/25 01:47:17;;;;;;;13.05;5.82;;;;;;;12.00;63.79;100671.69;4793096;29;124274;-81
2021/11/25 01:49:43;;;;;;;11.07;5.53;;;;;;;12.04;64.04;100680.53;4812172;29;119681;-81
2021/11/25 01:52:10;;;;;;;11.80;5.97;;;;;;;12.02;64.12;100672.00;4813932;29;119875;-83
2021/11/25 01:54:37;;;;;;;11.07;5.80;;;;;;;12.08;64.62;100672.16;4781310;29;122453;-83
2021/11/25 01:57:05;;;;;;;10.07;6.00;;;;;;;12.10;64.39;100667.72;4808435;29;121445;-80
2021/11/25 01:59:36;;;;;;;13.38;6.15;;;;;;;12.05;63.98;100648.31;4814830;29;122010;-82
2021/11/25 02:02:08;;;;;;;11.55;5.88;;;;;;;12.15;63.89;100658.09;4810567;29;120570;-81
2021/11/25 02:04:34;;;;;;;14.75;6.15;;;;;;;12.20;64.24;100658.22;4812401;29;121928;-83
2021/11/25 02:07:04;;;;;;;13.45;6.13;;;;;;;12.21;63.64;100651.50;4808824;29;122185;-81
2021/11/25 02:09:31;;;;;;;12.75;5.63;;;;;;;12.19;63.57;100650.44;4810686;29;120003;-81
2021/11/25 02:11:58;;;;;;;11.43;6.07;;;;;;;12.17;63.47;100644.63;4813415;29;120062;-83
2021/11/25 02:14:25;;;;;;;12.27;6.20;;;;;;;12.14;63.55;100651.81;4815347;29;123465;-83
2021/11/25 02:16:52;;;;;;;14.65;6.78;;;;;;;12.09;63.36;100641.47;4812022;29;120329;-82
2021/11/25 02:19:20;;;;;;;11.13;6.25;;;;;;;12.06;63.71;100625.84;4811364;29;120033;-82
2021/11/25 02:21:47;;;;;;;13.20;7.05;;;;;;;12.05;63.37;100626.31;4812367;29;120389;-81
2021/11/25 02:24:15;;;;;;;11.73;6.28;;;;;;;12.06;63.66;100622.34;4800079;29;120738;-82
2021/11/25 02:26:41;;;;;;;12.77;6.85;;;;;;;12.06;63.72;100623.09;4795385;29;122500;-81
2021/11/25 02:29:08;;;;;;;13.73;6.95;;;;;;;12.06;64.60;100606.63;4815941;29;120785;-83
2021/11/25 02:31:38;;;;;;;16.08;7.22;;;;;;;12.11;64.01;100610.75;4832109;28;120043;-82
2021/11/25 02:34:05;;;;;;;13.23;7.38;;;;;;;12.04;63.87;100598.06;4798114;29;121881;-83
2021/11/25 02:36:31;;;;;;;14.10;7.35;;;;;;;11.92;64.08;100590.78;4821738;29;120913;-82
2021/11/25 02:38:59;;;;;;;14.43;7.35;;;;;;;12.01;63.92;100601.75;4796663;29;122252;-82
2021/11/25 02:41:26;;;;;;;15.68;8.05;;;;;;;11.99;63.90;100593.97;4814500;29;120788;-83
2021/11/25 02:43:53;;;;;;;19.98;8.50;;;;;;;11.98;64.04;100599.91;4815723;29;120509;-81
2021/11/25 02:46:19;;;;;;;17.67;8.65;;;;;;;11.93;64.05;100595.81;4810715;29;123623;-82
2021/11/25 02:48:49;;;;;;;18.08;9.38;;;;;;;11.97;64.15;100601.16;4794878;29;121641;-83
2021/11/25 02:51:19;;;;;;;15.73;8.95;;;;;;;11.94;64.45;100599.31;4811687;29;119802;-82
2021/11/25 02:53:47;;;;;;;20.50;9.52;;;;;;;11.93;64.43;100592.31;4824512;29;121347;-81
2021/11/25 02:56:17;;;;;;;17.35;9.95;;;;;;;11.90;64.19;100587.72;4813461;29;120041;-82
2021/11/25 02:58:46;;;;;;;21.25;9.90;;;;;;;11.86;64.79;100581.63;4801166;29;122096;-82
2021/11/25 03:01:31;;;;;;;19.55;10.75;;;;;;;11.85;65.03;100583.63;4801348;29;120565;-83
2021/11/25 03:04:01;;;;;;;18.10;10.38;;;;;;;11.81;64.71;100577.50;4809104;29;121092;-83
2021/11/25 03:06:28;;;;;;;21.27;11.05;;;;;;;11.84;64.63;100567.59;4801327;29;123297;-82
2021/11/25 03:08:55;;;;;;;23.83;11.73;;;;;;;11.82;64.82;100570.03;4797765;29;119971;-83
2021/11/25 03:11:25;;;;;;;20.20;11.05;;;;;;;11.77;64.73;100556.88;4817153;29;121286;-83
2021/11/25 03:13:57;;;;;;;19.90;11.43;;;;;;;11.84;64.72;100573.09;4810605;29;122107;-81
2021/11/25 03:16:25;;;;;;;21.10;12.10;;;;;;;11.83;65.07;100564.09;4813812;29;119893;-83
2021/11/25 03:18:52;;;;;;;22.67;12.60;;;;;;;11.77;65.42;100557.63;4797010;29;121409;-83
2021/11/25 03:21:20;;;;;;;22.73;12.45;;;;;;;11.84;65.07;100557.38;4815713;29;119821;-83
2021/11/25 03:23:49;;;;;;;21.80;11.77;;;;;;;11.87;64.92;100563.94;4809690;29;120990;-83
2021/11/25 03:26:22;;;;;;;21.13;12.00;;;;;;;11.86;64.98;100559.66;4812246;29;120170;-81
2021/11/25 03:28:49;;;;;;;25.27;13.60;;;;;;;11.88;65.02;100554.44;4814076;29;121409;-82
2021/11/25 03:31:24;;;;;;;26.70;13.55;;;;;;;11.81;65.42;100541.78;4780455;29;122350;-83
2021/11/25 03:33:52;;;;;;;25.67;13.88;;;;;;;11.82;65.45;100540.56;4783585;29;120161;-82
2021/11/25 03:36:20;;;;;;;24.50;13.60;;;;;;;11.80;65.06;100525.75;4816378;28;120156;-81
2021/11/25 03:38:47;;;;;;;23.75;14.52;;;;;;;11.90;64.89;100532.75;4795187;29;121785;-82
2021/11/25 03:41:17;;;;;;;24.58;13.85;;;;;;;11.88;65.11;100541.47;4812091;29;122645;-82
2021/11/25 03:43:43;;;;;;;21.65;13.18;;;;;;;11.82;65.32;100529.56;4817488;29;120197;-83
2021/11/25 03:46:10;;;;;;;26.67;13.75;;;;;;;11.81;65.34;100513.53;4790835;29;122959;-83
2021/11/25 03:48:37;;;;;;;25.25;13.23;;;;;;;11.72;65.27;100508.81;4810694;29;120400;-82
2021/11/25 03:51:10;;;;;;;24.98;13.95;;;;;;;11.76;65.58;100512.16;4790565;29;121851;-82
2021/11/25 03:53:39;;;;;;;26.65;13.98;;;;;;;11.76;65.65;100508.63;4794735;29;122401;-83
2021/11/25 03:56:06;;;;;;;24.80;13.93;;;;;;;11.77;65.50;100501.91;4810123;29;119525;-82
2021/11/25 03:58:36;;;;;;;28.40;14.40;;;;;;;11.82;65.14;100510.31;4784976;29;121603;-82
2021/11/25 04:01:03;;;;;;;31.45;15.43;;;;;;;11.78;65.15;100492.44;4797701;29;120146;-81
2021/11/25 04:03:30;;;;;;;27.48;14.45;;;;;;;11.83;65.82;100500.88;4814715;29;120456;-83
2021/11/25 04:05:57;;;;;;;26.35;14.60;;;;;;;11.78;65.47;100481.47;4814023;29;119916;-82
2021/11/25 04:08:24;;;;;;;29.50;15.20;;;;;;;11.75;65.72;100485.13;4794252;29;120660;-82
2021/11/25 04:10:51;;;;;;;28.65;14.32;;;;;;;11.79;66.03;100483.78;4794341;29;121979;-83
2021/11/25 04:13:18;;;;;;;31.15;15.95;;;;;;;11.73;66.05;100471.09;4810395;29;120759;-81
2021/11/25 04:15:45;;;;;;;27.98;14.32;;;;;;;11.78;65.93;100473.22;4811354;29;120569;-83
2021/11/25 04:18:12;;;;;;;32.55;14.52;;;;;;;11.80;66.37;100468.81;4781340;29;121467;-82
2021/11/25 04:20:39;;;;;;;32.70;17.15;;;;;;;11.70;66.04;100459.06;4809937;29;120932;-83
2021/11/25 04:23:06;;;;;;;35.05;16.92;;;;;;;11.75;65.94;100472.16;4811823;29;119567;-82
2021/11/25 04:25:36;;;;;;;39.42;17.50;;;;;;;11.72;65.87;100462.09;4814690;29;119841;-83
2021/11/25 04:28:03;;;;;;;35.08;16.17;;;;;;;11.77;66.56;100469.72;4795437;29;119849;-82
2021/11/25 04:35:53;;;;;;;41.75;18.65;;;;;;;11.63;66.42;100451.91;4811879;29;120469;-82
2021/11/25 04:38:22;;;;;;;40.40;19.27;;;;;;;11.64;66.07;100455.41;4814577;29;122708;-83
2021/11/25 04:40:55;;;;;;;42.00;18.70;;;;;;;11.56;66.64;100432.22;4795057;29;122079;-82
2021/11/25 04:43:25;;;;;;;47.80;20.63;;;;;;;11.62;67.07;100435.88;4815020;29;120108;-82
2021/11/25 04:45:53;;;;;;;46.47;19.88;;;;;;;11.64;66.48;100444.44;4828569;28;119870;-81
2021/11/25 04:48:22;;;;;;;41.67;19.48;;;;;;;11.61;66.63;100440.63;4800159;29;120478;-81
2021/11/25 04:50:49;;;;;;;48.95;20.73;;;;;;;11.62;67.09;100430.41;4798379;29;121893;-82
2021/11/25 04:53:16;;;;;;;45.70;21.50;;;;;;;11.66;66.90;100425.50;4784559;29;122470;-82
2021/11/25 04:55:43;;;;;;;49.03;21.70;;;;;;;11.67;66.84;100416.78;4809781;29;121425;-81
2021/11/25 04:58:10;;;;;;;51.97;22.55;;;;;;;11.62;66.66;100411.16;4809483;29;119768;-82
2021/11/25 05:00:38;;;;;;;48.85;23.30;;;;;;;11.65;66.86;100418.47;4809325;29;120846;-82
2021/11/25 05:03:06;;;;;;;52.38;23.20;;;;;;;11.59;66.96;100401.88;4801890;29;119771;-82
2021/11/25 05:05:33;;;;;;;55.63;21.63;;;;;;;11.58;67.05;100399.56;4791139;29;120995;-82
2021/11/25 05:08:00;;;;;;;49.40;22.08;;;;;;;11.59;67.06;100387.34;4793844;29;123092;-81
2021/11/25 05:10:27;;;;;;;50.70;22.40;;;;;;;11.59;66.93;100382.63;4817770;29;119590;-81
2021/11/25 05:12:55;;;;;;;56.53;24.58;;;;;;;11.66;67.12;100395.28;4794903;29;122285;-81
2021/11/25 05:15:22;;;;;;;51.20;23.20;;;;;;;11.70;66.85;100406.84;4793760;29;120953;-81
2021/11/25 05:17:51;;;;;;;62.08;24.13;;;;;;;11.65;66.73;100391.75;4795411;29;121403;-82
2021/11/25 05:20:18;;;;;;;57.35;24.30;;;;;;;11.70;66.56;100395.88;4813475;29;120161;-82
2021/11/25 05:22:44;;;;;;;55.85;24.48;;;;;;;11.68;66.71;100387.31;4806005;29;120845;-82
2021/11/25 05:25:13;;;;;;;53.08;23.75;;;;;;;11.71;66.92;100385.63;4809369;29;121307;-81
2021/11/25 05:27:42;;;;;;;55.88;23.08;;;;;;;11.73;67.06;100383.94;4809567;29;123716;-82
2021/11/25 05:30:10;;;;;;;59.33;26.13;;;;;;;11.73;66.72;100381.19;4808725;29;120046;-82
2021/11/25 05:32:38;;;;;;;53.72;24.58;;;;;;;11.72;66.87;100382.41;4783161;29;121154;-83
2021/11/25 05:35:09;;;;;;;55.65;25.52;;;;;;;11.70;66.66;100368.38;4782122;29;120341;-81
2021/11/25 05:37:37;;;;;;;61.15;26.30;;;;;;;11.76;66.69;100379.50;4778676;29;121173;-81
2021/11/25 05:40:05;;;;;;;58.70;24.40;;;;;;;11.73;66.37;100366.69;4815392;29;122255;-83
2021/11/25 05:42:35;;;;;;;58.60;26.48;;;;;;;11.73;66.58;100367.44;4811583;29;121152;-82
2021/11/25 05:45:07;;;;;;;55.97;24.88;;;;;;;11.73;66.37;100356.47;4798293;29;122099;-82
2021/11/25 05:47:35;;;;;;;55.15;25.83;;;;;;;11.75;66.71;100365.00;4791299;29;120466;-83
2021/11/25 05:50:08;;;;;;;57.42;26.15;;;;;;;11.78;66.84;100360.56;4808524;29;123524;-83
2021/11/25 05:52:36;;;;;;;56.53;27.70;;;;;;;11.72;66.52;100352.19;4832416;28;120100;-80
2021/11/25 05:55:05;;;;;;;67.50;26.80;;;;;;;11.80;66.69;100356.13;4817036;29;120248;-82
2021/11/25 05:57:33;;;;;;;61.95;26.65;;;;;;;11.80;66.54;100352.63;4815229;29;119590;-82
2021/11/25 06:00:00;;;;;;;56.67;26.08;;;;;;;11.80;66.53;100347.91;4801801;29;122332;-82
2021/11/25 06:02:28;;;;;;;63.90;28.95;;;;;;;11.72;66.53;100340.44;4812137;29;119879;-82
2021/11/25 06:04:55;;;;;;;67.82;28.45;;;;;;;11.63;66.53;100328.28;4805335;29;122340;-82
2021/11/25 06:07:22;;;;;;;58.92;28.05;;;;;;;11.72;66.69;100334.94;4798429;29;121971;-82
2021/11/25 06:09:49;;;;;;;63.13;28.10;;;;;;;11.74;66.65;100338.00;4813680;29;119522;-82
2021/11/25 06:12:17;;;;;;;71.07;30.38;;;;;;;11.67;66.59;100334.38;4811379;29;119941;-82
2021/11/25 06:14:44;;;;;;;64.10;28.42;;;;;;;11.71;66.92;100338.94;4796765;29;122271;-82
2021/11/25 06:17:10;;;;;;;71.00;29.35;;;;;;;11.66;66.86;100324.59;4806388;29;119886;-81
2021/11/25 06:19:38;;;;;;;60.90;28.83;;;;;;;11.69;67.09;100322.91;4796235;29;123032;-81
2021/11/25 06:22:05;;;;;;;68.47;30.02;;;;;;;11.69;67.12;100320.16;4818033;29;120464;-81
2021/11/25 06:24:32;;;;;;;67.88;30.05;;;;;;;11.66;67.11;100310.09;4803329;29;121789;-81
2021/11/25 06:27:00;;;;;;;74.75;29.33;;;;;;;11.69;67.05;100307.19;4793992;29;122717;-81
2021/11/25 06:29:26;;;;;;;65.88;30.13;;;;;;;11.72;67.09;100313.72;4801700;29;120571;-81
2021/11/25 06:31:53;;;;;;;68.32;28.77;;;;;;;11.76;67.30;100325.31;4816001;29;119901;-82
2021/11/25 06:34:19;;;;;;;69.30;30.10;;;;;;;11.79;67.07;100315.38;4815249;29;120054;-82
2021/11/25 06:36:45;;;;;;;71.88;30.42;;;;;;;11.80;66.83;100317.66;4801036;29;120050;-81
2021/11/25 06:39:10;;;;;;;77.35;30.88;;;;;;;11.80;67.58;100309.44;4793545;29;121684;-82
2021/11/25 06:41:37;;;;;;;78.20;31.48;;;;;;;11.83;67.23;100307.72;4812533;29;119899;-81
2021/11/25 06:44:03;;;;;;;68.93;30.42;;;;;;;11.80;67.19;100294.94;4813528;29;119866;-81
2021/11/25 06:46:29;;;;;;;72.32;30.55;;;;;;;11.73;66.98;100279.53;4815929;29;119926;-81
2021/11/25 06:48:55;;;;;;;70.82;31.15;;;;;;;11.77;66.83;100288.34;4796516;29;119987;-83
2021/11/25 06:51:21;;;;;;;71.13;30.48;;;;;;;11.76;67.10;100283.31;4814344;29;121689;-81
2021/11/25 06:53:47;;;;;;;70.63;31.15;;;;;;;11.83;67.33;100283.78;4800382;29;122536;-81
2021/11/25 06:56:13;;;;;;;72.82;30.42;;;;;;;11.80;67.04;100281.94;4809974;29;120532;-83
2021/11/25 06:58:39;;;;;;;73.45;30.92;;;;;;;11.82;67.34;100284.97;4817164;29;119962;-81
2021/11/25 07:01:07;;;;;;;71.40;31.15;;;;;;;11.86;67.50;100290.34;4813447;29;121259;-81
2021/11/25 07:03:35;;;;;;;74.70;30.95;;;;;;;11.89;67.41;100283.88;4811594;29;121703;-81
2021/11/25 07:06:02;;;;;;;77.55;32.80;;;;;;;11.90;67.26;100275.19;4808271;29;120701;-82
2021/11/25 07:08:29;;;;;;;71.72;32.28;;;;;;;11.85;67.29;100278.56;4797059;29;119987;-83
2021/11/25 07:10:55;;;;;;;83.35;31.92;;;;;;;11.92;67.93;100278.22;4816671;29;121990;-81
2021/11/25 07:13:22;;;;;;;77.30;32.85;;;;;;;11.90;67.70;100268.91;4810554;29;121926;-81
2021/11/25 07:15:48;;;;;;;81.40;33.38;;;;;;;11.92;67.39;100275.47;4784840;29;119851;-82
2021/11/25 07:18:14;;;;;;;80.15;32.10;;;;;;;11.94;67.67;100269.50;4800095;29;121908;-82
2021/11/25 07:20:40;;;;;;;78.13;31.75;;;;;;;11.87;67.53;100258.88;4797537;29;120205;-82
2021/11/25 07:23:06;;;;;;;77.63;33.00;;;;;;;11.86;67.62;100249.09;4799665;29;121080;-82
2021/11/25 07:25:32;;;;;;;84.47;34.05;;;;;;;11.91;67.44;100262.19;4831477;28;123346;-83
2021/11/25 07:27:59;;;;;;;81.00;34.15;;;;;;;11.85;67.57;100253.09;4797791;29;121917;-82
2021/11/25 07:30:25;;;;;;;84.13;35.13;;;;;;;11.87;67.51;100250.63;4807121;29;120490;-81
2021/11/25 07:32:51;;;;;;;90.50;34.58;;;;;;;11.95;67.50;100260.78;4827668;28;120734;-82
2021/11/25 07:35:19;;;;;;;86.25;35.13;;;;;;;11.90;67.25;100247.69;4807829;29;119950;-82
2021/11/25 07:37:52;;;;;;;84.20;33.65;;;;;;;11.97;67.38;100254.81;4779848;29;122329;-81
2021/11/25 07:40:19;;;;;;;74.93;32.72;;;;;;;11.89;67.62;100235.19;4810600;29;119864;-82
2021/11/25 07:42:45;;;;;;;86.82;34.30;;;;;;;12.02;67.83;100248.66;4799361;29;120737;-82
2021/11/25 07:45:11;;;;;;;77.18;31.73;;;;;;;11.99;67.56;100238.59;4809047;29;120014;-82
2021/11/25 07:47:38;;;;;;;78.72;31.65;;;;;;;12.07;67.35;100250.78;4812165;29;119846;-83
2021/11/25 07:50:08;;;;;;;82.45;31.90;;;;;;;11.99;67.69;100233.13;4777831;29;121965;-82
2021/11/25 07:52:36;;;;;;;74.55;30.52;;;;;;;12.13;67.43;100250.88;4791363;29;122051;-83
2021/11/25 07:55:03;;;;;;;65.53;29.38;;;;;;;12.13;67.35;100251.63;4807690;29;120084;-80
2021/11/25 07:57:29;;;;;;;73.40;29.55;;;;;;;12.12;67.54;100241.88;4812654;29;120903;-82
2021/11/25 07:59:55;;;;;;;66.70;28.83;;;;;;;12.08;67.54;100246.03;4794939;29;120322;-83
2021/11/25 08:02:22;;;;;;;59.90;25.90;;;;;;;12.08;67.52;100224.81;4802734;29;120783;-81
2021/11/25 08:04:49;;;;;;;68.55;27.83;;;;;;;12.11;67.60;100229.34;4814021;29;120288;-81
2021/11/25 08:07:15;;;;;;;56.30;25.38;;;;;;;12.22;67.57;100234.28;4815670;29;119978;-82
2021/11/25 08:09:42;;;;;;;52.10;23.95;;;;;;;12.24;67.56;100240.84;4812148;29;119815;-83
2021/11/25 08:12:08;;;;;;;56.10;23.88;;;;;;;12.23;67.77;100233.06;4781045;29;122214;-82
2021/11/25 08:14:35;;;;;;;58.13;24.48;;;;;;;12.15;67.74;100221.69;4809159;29;120474;-83
2021/11/25 08:17:01;;;;;;;58.47;23.55;;;;;;;12.32;67.81;100246.00;4811383;29;121986;-81
2021/11/25 08:19:28;;;;;;;59.42;25.05;;;;;;;12.26;67.77;100243.88;4810033;29;120033;-81
2021/11/25 08:21:55;;;;;;;48.63;21.92;;;;;;;12.39;67.62;100249.13;4809686;29;120078;-83
2021/11/25 08:24:22;;;;;;;37.20;14.85;;;;;;;12.41;68.50;100240.38;4797917;29;121979;-81
2021/11/25 08:26:48;;;;;;;35.55;14.23;;;;;;;12.48;68.57;100234.50;4779503;29;120708;-83
2021/11/25 08:29:14;;;;;;;24.75;10.45;;;;;;;12.56;68.16;100230.91;4778088;29;122048;-83
2021/11/25 08:31:41;;;;;;;14.13;5.32;;;;;;;12.64;68.11;100234.03;4793749;29;123774;-81
2021/11/25 08:34:07;;;;;;;11.68;3.15;;;;;;;12.69;67.64;100227.88;4825581;28;119740;-82
2021/11/25 08:36:33;;;;;;;9.10;3.63;;;;;;;12.87;67.39;100237.91;4778451;29;121124;-81
2021/11/25 08:38:59;;;;;;;9.98;3.40;;;;;;;12.96;67.38;100237.03;4809910;29;120630;-81
2021/11/25 08:41:25;;;;;;;9.07;2.25;;;;;;;13.02;67.60;100235.16;4781294;29;119939;-81
2021/11/25 08:43:52;;;;;;;7.70;1.80;;;;;;;12.99;67.50;100216.81;4808039;29;121576;-81
2021/11/25 08:46:19;;;;;;;7.53;2.20;;;;;;;13.10;67.22;100230.75;4825589;28;123359;-80
2021/11/25 08:48:45;;;;;;;6.97;1.27;;;;;;;13.06;67.48;100216.44;4819964;28;121107;-80
2021/11/25 08:51:12;;;;;;;7.30;1.67;;;;;;;13.06;67.18;100217.19;4806295;29;123156;-81
2021/11/25 08:53:39;;;;;;;6.47;1.27;;;;;;;13.12;66.99;100231.78;4804300;29;119487;-81
2021/11/25 08:56:06;;;;;;;6.72;1.52;;;;;;;13.07;66.96;100207.69;4789981;29;123288;-82
2021/11/25 08:58:32;;;;;;;5.72;1.38;;;;;;;13.07;66.91;100213.19;4824000;28;120200;-81
2021/11/25 09:00:59;;;;;;;4.88;1.20;;;;;;;13.07;66.75;100210.44;4794867;29;120094;-80
2021/11/25 09:03:26;;;;;;;5.93;1.20;;;;;;;13.12;66.74;100220.03;4794165;29;120942;-81
2021/11/25 09:05:52;;;;;;;3.22;1.55;;;;;;;13.11;66.62;100213.75;4807590;29;120730;-81
2021/11/25 09:08:19;;;;;;;6.75;1.40;;;;;;;13.11;67.09;100221.25;4797149;29;120372;-81
2021/11/25 09:10:45;;;;;;;5.20;1.52;;;;;;;13.09;66.47;100221.75;4796585;29;123084;-81
2021/11/25 09:13:11;;;;;;;6.80;2.00;;;;;;;13.11;66.88;100213.75;4793717;29;119575;-82
2021/11/25 09:15:39;;;;;;;5.80;1.77;;;;;;;13.10;66.33;100209.50;4807941;29;120685;-80
2021/11/25 09:18:10;;;;;;;9.52;2.15;;;;;;;13.08;66.11;100208.44;4810305;29;122900;-81
2021/11/25 09:20:40;;;;;;;7.35;2.35;;;;;;;13.04;66.46;100196.88;4780306;29;120354;-82
2021/11/25 09:23:09;;;;;;;9.05;2.10;;;;;;;13.05;66.85;100193.66;4810184;29;123405;-81
2021/11/25 09:25:41;;;;;;;10.93;2.20;;;;;;;13.09;66.85;100194.19;4810937;29;120676;-82
2021/11/25 09:28:10;;;;;;;8.98;2.20;;;;;;;13.11;66.64;100194.47;4802677;29;120446;-82
2021/11/25 09:30:37;;;;;;;7.40;1.75;;;;;;;13.19;66.39;100205.88;4799389;29;122532;-82
2021/11/25 09:33:03;;;;;;;8.82;1.77;;;;;;;13.18;66.37;100207.88;4780109;29;119891;-81
2021/11/25 09:35:29;;;;;;;5.05;1.50;;;;;;;13.16;66.34;100204.81;4811713;29;122090;-81
2021/11/25 09:37:56;;;;;;;8.55;2.10;;;;;;;13.16;66.81;100209.56;4794672;29;122771;-82
2021/11/25 09:40:23;;;;;;;5.93;1.50;;;;;;;13.11;66.50;100201.97;4812706;29;120135;-82
2021/11/25 09:42:56;;;;;;;7.03;1.98;;;;;;;13.16;66.36;100209.56;4794744;29;121955;-81
2021/11/25 09:45:23;;;;;;;12.63;1.53;;;;;;;13.03;66.21;100187.88;4808902;29;121151;-81
2021/11/25 09:47:58;;;;;;;9.38;1.95;;;;;;;13.14;66.39;100201.03;4810339;29;120085;-82
2021/11/25 09:50:26;;;;;;;7.28;1.65;;;;;;;13.02;66.60;100180.09;4808556;29;119986;-81
2021/11/25 09:52:53;;;;;;;10.10;1.80;;;;;;;13.12;66.48;100195.25;4793807;29;123296;-81
2021/11/25 09:55:21;;;;;;;9.52;1.70;;;;;;;13.14;66.73;100192.75;4790401;29;122924;-81
2021/11/25 09:57:47;;;;;;;6.50;1.60;;;;;;;13.14;66.65;100179.75;4802078;29;122187;-80
2021/11/25 10:00:14;;;;;;;9.88;1.63;;;;;;;13.14;66.51;100181.75;4804893;29;120968;-81
2021/11/25 10:02:40;;;;;;;7.75;1.45;;;;;;;13.12;66.65;100170.47;4804815;29;120484;-81
2021/11/25 10:05:07;;;;;;;7.07;2.00;;;;;;;13.12;66.66;100170.47;4819440;28;120111;-81
2021/11/25 10:07:37;;;;;;;6.40;1.23;;;;;;;13.23;66.44;100169.88;4812026;29;120246;-82
2021/11/25 10:10:32;;;;;;;5.43;1.17;;;;;;;13.25;66.38;100170.13;4794735;29;120857;-82
2021/11/25 10:13:07;;;;;;;10.55;1.63;;;;;;;13.27;66.72;100171.19;4790795;29;123293;-81
2021/11/25 10:15:36;;;;;;;6.53;1.65;;;;;;;13.20;66.54;100155.81;4799452;29;119808;-81
2021/11/25 10:18:14;;;;;;;6.22;1.50;;;;;;;13.20;66.29;100149.56;4794629;29;122802;-81
2021/11/25 10:20:49;;;;;;;12.82;2.08;;;;;;;13.26;66.33;100158.66;4776701;29;120130;-81
2021/11/25 10:23:26;;;;;;;10.65;2.40;;;;;;;13.27;66.49;100149.16;4793646;29;122681;-80
2021/11/25 10:25:57;;;;;;;8.23;1.95;;;;;;;13.26;66.49;100146.91;4800445;29;123525;-79
2021/11/25 10:28:36;;;;;;;6.32;1.55;;;;;;;13.25;66.71;100157.16;4804503;29;120395;-79
2021/11/25 10:31:10;;;;;;;11.77;1.98;;;;;;;13.16;66.39;100133.22;4804144;29;122258;-80
2021/11/25 10:33:46;;;;;;;;;;;;;;;13.24;66.89;100139.09;4802233;29;122707;-78
2021/11/25 10:38:56;;;;;;;11.13;2.20;;;;;;;13.31;67.33;100149.72;4803538;29;123016;-79
2021/11/25 10:41:25;;;;;;;13.02;2.03;;;;;;;13.38;67.45;100143.78;4780147;29;120719;-80
2021/11/25 10:44:18;;;;;;;10.50;2.20;;;;;;;13.39;66.92;100142.53;4823023;28;122411;-80
2021/11/25 10:46:52;;;;;;;10.48;2.10;;;;;;;13.31;67.22;100127.69;4794263;29;123055;-80
2021/11/25 10:49:31;;;;;;;8.45;1.88;;;;;;;13.41;67.67;100126.28;4792952;29;119972;-80
2021/11/25 10:51:56;;;;;;;6.82;1.80;;;;;;;13.45;66.91;100106.78;4788722;29;120533;-79
2021/11/25 10:54:22;;;;;;;10.27;1.90;;;;;;;13.43;66.35;100096.25;4809872;29;119944;-79
2021/11/25 10:56:51;;;;;;;13.50;1.90;;;;;;;13.44;66.50;100103.28;4794097;29;120032;-80
2021/11/25 10:59:19;;;;;;;13.25;1.92;;;;;;;13.48;66.51;100100.31;4794550;29;122430;-80
2021/11/25 11:01:50;;;;;;;8.55;1.80;;;;;;;13.48;65.94;100098.31;4810093;29;120107;-80
2021/11/25 11:04:17;;;;;;;11.63;2.28;;;;;;;13.48;66.17;100103.06;4807279;29;123345;-80
2021/11/25 11:06:44;;;;;;;13.20;1.98;;;;;;;13.47;65.60;100094.03;4822923;28;123464;-79
2021/11/25 11:09:30;;;;;;;10.95;2.00;;;;;;;13.46;66.06;100092.53;4815082;29;119785;-79
2021/11/25 11:12:34;;;;;;;9.85;1.73;;;;;;;13.46;65.98;100092.53;4791040;29;122040;-80
2021/11/25 11:15:25;;;;;;;14.23;2.03;;;;;;;13.48;65.88;100098.31;4791302;29;123835;-80
2021/11/25 11:20:44;;;;;;;13.55;1.52;;;;;;;13.56;66.89;100098.66;4811428;29;119856;-80
2021/11/25 11:23:13;;;;;;;12.10;2.03;;;;;;;13.60;66.01;100092.94;4828381;28;123409;-79